Puerto De La Cruz, Spain
Current Conditions -  °F | °C
As of 11:00 AM on Friday 19 Dec 2014 (Local Time) from GCXO Reporting Station
Broken Clouds Broken Clouds  
Wind Chill: 57°   Ceiling: 1200
Heat Index: 57°   Visibility: 6mi
Dew Point: 57°   Wind: 10mph
Humidity: 100%   Direction: 110°ESE
Pressure: 30.42"   Gusts: NA
Location:  28.41°N, 16.55°W
Report Text: GCXO 191100Z 11009KT 080V150 9000 FEW004 SCT009 BKN012 14/14 Q1030 NOSIG
Loading
Personal Weather Stations






























Interactive Weather Map New forecast layout! Learn more

10-Day Weather Forecast

Advertisements
Track Severe Weather on mobile